createdAt,value
2022-10-20T00:01:19.708Z,1023.13
2022-10-20T00:02:19.799Z,1023.15
2022-10-20T00:04:23.730Z,1023.17
2022-10-20T00:05:23.680Z,1023.20
2022-10-20T00:07:16.788Z,1023.21
2022-10-20T00:08:16.769Z,1023.17
2022-10-20T00:09:16.753Z,1023.16
2022-10-20T00:10:16.742Z,1023.20
2022-10-20T00:11:16.733Z,1023.19
2022-10-20T00:12:16.721Z,1023.17
2022-10-20T00:13:16.712Z,1023.18
2022-10-20T00:14:16.727Z,1023.17
2022-10-20T00:15:16.690Z,1023.17
2022-10-20T00:16:16.683Z,1023.12
2022-10-20T00:17:16.668Z,1023.12
2022-10-20T00:18:16.662Z,1023.12
2022-10-20T00:19:16.650Z,1023.09
2022-10-20T00:20:16.642Z,1023.14
2022-10-20T00:21:16.645Z,1023.12
2022-10-20T00:22:16.617Z,1023.16
2022-10-20T00:23:16.607Z,1023.13
2022-10-20T00:24:16.598Z,1023.11
2022-10-20T00:25:16.587Z,1023.08
2022-10-20T00:26:16.607Z,1023.09
2022-10-20T00:27:16.567Z,1023.10
2022-10-20T00:28:16.552Z,1023.09
2022-10-20T00:30:16.535Z,1023.07
2022-10-20T00:31:16.526Z,1023.06
2022-10-20T00:32:16.531Z,1023.03
2022-10-20T00:33:16.499Z,1023.03
2022-10-20T00:34:16.499Z,1023.03
2022-10-20T00:35:16.481Z,1023.04
2022-10-20T00:36:16.470Z,1023.07
2022-10-20T00:37:16.458Z,1023.05
2022-10-20T00:38:16.448Z,1023.01
2022-10-20T00:39:16.443Z,1022.98
2022-10-20T00:40:16.429Z,1022.98
2022-10-20T00:41:16.418Z,1022.98
2022-10-20T00:42:16.411Z,1022.98
2022-10-20T00:43:16.398Z,1022.96
2022-10-20T00:44:16.387Z,1022.95
2022-10-20T00:45:16.378Z,1022.92
2022-10-20T00:46:16.369Z,1022.91
2022-10-20T00:47:16.355Z,1022.89
2022-10-20T00:48:16.343Z,1022.80
2022-10-20T00:49:16.335Z,1022.77
2022-10-20T00:50:16.322Z,1022.73
2022-10-20T00:51:16.313Z,1022.70
2022-10-20T00:52:16.302Z,1022.70
2022-10-20T00:53:16.292Z,1022.67
2022-10-20T00:54:16.280Z,1022.67
2022-10-20T00:55:16.272Z,1022.67
2022-10-20T00:56:16.260Z,1022.67
2022-10-20T00:57:16.250Z,1022.66
2022-10-20T00:58:16.238Z,1022.70
2022-10-20T00:59:16.228Z,1022.65
2022-10-20T01:00:16.220Z,1022.67
2022-10-20T01:01:16.247Z,1022.66
2022-10-20T01:02:16.197Z,1022.63
2022-10-20T01:03:16.189Z,1022.64
2022-10-20T01:04:16.175Z,1022.67
2022-10-20T01:05:16.164Z,1022.70
2022-10-20T01:07:16.142Z,1022.71
2022-10-20T01:08:16.134Z,1022.69
2022-10-20T01:09:16.122Z,1022.68
2022-10-20T01:10:16.110Z,1022.66
2022-10-20T01:11:16.101Z,1022.65
2022-10-20T01:12:16.091Z,1022.63
2022-10-20T01:13:16.077Z,1022.62
2022-10-20T01:14:16.069Z,1022.63
2022-10-20T01:15:16.119Z,1022.64
2022-10-20T01:16:16.055Z,1022.60
2022-10-20T01:17:16.037Z,1022.63
2022-10-20T01:18:16.027Z,1022.59
2022-10-20T01:19:16.015Z,1022.58
2022-10-20T01:20:16.003Z,1022.59
2022-10-20T01:21:15.995Z,1022.54
2022-10-20T01:22:15.982Z,1022.52
2022-10-20T01:23:15.971Z,1022.53
2022-10-20T01:24:16.026Z,1022.56
2022-10-20T01:25:15.949Z,1022.51
2022-10-20T01:26:15.939Z,1022.49
2022-10-20T01:27:15.925Z,1022.45
2022-10-20T01:28:15.917Z,1022.47
2022-10-20T01:29:15.906Z,1022.43
2022-10-20T01:30:15.901Z,1022.46
2022-10-20T01:31:15.886Z,1022.46
2022-10-20T01:32:15.869Z,1022.43
2022-10-20T01:33:15.928Z,1022.39
2022-10-20T01:34:15.866Z,1022.39
2022-10-20T01:35:15.846Z,1022.40
2022-10-20T01:36:15.832Z,1022.36
2022-10-20T01:37:28.255Z,1022.36
2022-10-20T01:38:15.804Z,1022.37
2022-10-20T01:39:15.800Z,1022.37
2022-10-20T01:40:15.787Z,1022.36
2022-10-20T01:41:15.778Z,1022.36
2022-10-20T01:42:15.769Z,1022.32
2022-10-20T01:43:15.756Z,1022.31
2022-10-20T01:44:15.747Z,1022.28
2022-10-20T01:45:15.734Z,1022.30
2022-10-20T01:46:15.726Z,1022.24
2022-10-20T01:47:15.719Z,1022.24
2022-10-20T01:48:15.702Z,1022.25
2022-10-20T01:49:15.690Z,1022.26
2022-10-20T01:50:15.681Z,1022.27
2022-10-20T01:51:15.671Z,1022.22
2022-10-20T01:52:15.660Z,1022.24
2022-10-20T01:53:15.650Z,1022.22
2022-10-20T01:54:15.677Z,1022.21
2022-10-20T01:55:15.636Z,1022.18
2022-10-20T01:56:15.619Z,1022.17
2022-10-20T01:57:15.604Z,1022.14
2022-10-20T01:58:15.595Z,1022.12
2022-10-20T01:59:15.585Z,1022.12
2022-10-20T02:00:15.577Z,1022.10
2022-10-20T02:01:15.589Z,1022.08
2022-10-20T02:02:15.556Z,1022.07
2022-10-20T02:03:15.539Z,1022.05
2022-10-20T02:04:15.530Z,1022.03
2022-10-20T02:05:15.517Z,1021.98
2022-10-20T02:06:15.508Z,1022.00
2022-10-20T02:07:15.497Z,1021.97
2022-10-20T02:08:15.485Z,1021.99
2022-10-20T02:09:15.475Z,1021.91
2022-10-20T02:10:15.464Z,1021.91
2022-10-20T02:11:15.455Z,1021.88
2022-10-20T02:12:15.445Z,1021.88
2022-10-20T02:13:15.432Z,1021.91
2022-10-20T02:14:15.418Z,1021.88
2022-10-20T02:15:15.407Z,1021.88
2022-10-20T02:16:15.399Z,1021.84
2022-10-20T02:17:15.385Z,1021.82
2022-10-20T02:18:15.376Z,1021.84
2022-10-20T02:19:15.366Z,1021.81
2022-10-20T02:20:15.354Z,1021.79
2022-10-20T02:21:15.344Z,1021.77
2022-10-20T02:22:15.334Z,1021.77
2022-10-20T02:23:15.320Z,1021.76
2022-10-20T02:24:15.309Z,1021.73
2022-10-20T02:25:15.299Z,1021.69
2022-10-20T02:26:15.290Z,1021.66
2022-10-20T02:27:15.276Z,1021.68
2022-10-20T02:28:15.268Z,1021.70
2022-10-20T02:29:15.256Z,1021.72
2022-10-20T02:30:15.244Z,1021.68
2022-10-20T02:31:15.233Z,1021.72
2022-10-20T02:32:15.224Z,1021.71
2022-10-20T02:33:15.212Z,1021.68
2022-10-20T02:34:15.207Z,1021.69
2022-10-20T02:35:15.190Z,1021.71
2022-10-20T02:36:15.178Z,1021.74
2022-10-20T02:38:15.159Z,1021.79
2022-10-20T02:39:15.146Z,1021.79
2022-10-20T02:40:15.134Z,1021.76
2022-10-20T02:41:15.122Z,1021.74
2022-10-20T02:42:15.112Z,1021.71
2022-10-20T02:43:15.101Z,1021.70
2022-10-20T02:44:15.090Z,1021.71
2022-10-20T02:45:15.078Z,1021.67
2022-10-20T02:47:15.060Z,1021.66
2022-10-20T02:48:15.044Z,1021.64
2022-10-20T02:49:15.032Z,1021.66
2022-10-20T02:50:15.023Z,1021.65
2022-10-20T02:51:15.013Z,1021.63
2022-10-20T02:52:15.000Z,1021.62
2022-10-20T02:53:14.996Z,1021.62
2022-10-20T02:54:14.980Z,1021.60
2022-10-20T02:55:14.982Z,1021.63
2022-10-20T02:56:14.957Z,1021.60
2022-10-20T02:57:14.946Z,1021.56
2022-10-20T02:58:14.935Z,1021.60
2022-10-20T02:59:14.927Z,1021.63
2022-10-20T03:00:14.913Z,1021.60
2022-10-20T03:01:14.914Z,1021.62
2022-10-20T03:02:14.892Z,1021.61
2022-10-20T03:03:14.880Z,1021.63
2022-10-20T03:04:14.913Z,1021.61
2022-10-20T03:05:14.856Z,1021.58
2022-10-20T03:06:14.845Z,1021.59
2022-10-20T03:07:14.837Z,1021.53
2022-10-20T03:08:14.823Z,1021.51
2022-10-20T03:09:14.810Z,1021.47
2022-10-20T03:10:14.801Z,1021.44
2022-10-20T03:11:14.792Z,1021.47
2022-10-20T03:12:14.779Z,1021.49
2022-10-20T03:13:14.768Z,1021.47
2022-10-20T03:14:14.758Z,1021.47
2022-10-20T03:15:14.747Z,1021.48
2022-10-20T03:16:14.734Z,1021.47
2022-10-20T03:17:14.724Z,1021.44
2022-10-20T03:18:14.712Z,1021.43
2022-10-20T03:19:14.701Z,1021.43
2022-10-20T03:20:14.693Z,1021.42
2022-10-20T03:21:14.678Z,1021.41
2022-10-20T03:22:14.668Z,1021.47
2022-10-20T03:23:17.693Z,1021.43
2022-10-20T03:24:14.645Z,1021.43
2022-10-20T03:25:14.635Z,1021.46
2022-10-20T03:26:14.623Z,1021.45
2022-10-20T03:27:14.614Z,1021.42
2022-10-20T03:28:14.600Z,1021.38
2022-10-20T03:29:14.593Z,1021.36
2022-10-20T03:30:14.595Z,1021.37
2022-10-20T03:31:14.568Z,1021.35
2022-10-20T03:32:14.560Z,1021.35
2022-10-20T03:33:14.565Z,1021.36
2022-10-20T03:34:14.536Z,1021.34
2022-10-20T03:35:14.525Z,1021.36
2022-10-20T03:36:14.511Z,1021.36
2022-10-20T03:37:14.501Z,1021.36
2022-10-20T03:38:14.490Z,1021.38
2022-10-20T03:39:14.479Z,1021.33
2022-10-20T03:40:14.464Z,1021.32
2022-10-20T03:41:14.459Z,1021.29
2022-10-20T03:42:14.444Z,1021.24
2022-10-20T03:43:14.439Z,1021.24
2022-10-20T03:44:14.425Z,1021.21
2022-10-20T03:45:17.713Z,1021.20
2022-10-20T03:46:14.399Z,1021.21
2022-10-20T03:47:14.389Z,1021.24
2022-10-20T03:48:14.378Z,1021.22
2022-10-20T03:49:14.366Z,1021.24
2022-10-20T03:50:14.358Z,1021.27
2022-10-20T03:51:14.350Z,1021.27
2022-10-20T03:52:14.333Z,1021.27
2022-10-20T03:53:14.324Z,1021.27
2022-10-20T03:54:14.310Z,1021.25
2022-10-20T03:55:14.302Z,1021.26
2022-10-20T03:56:14.286Z,1021.29
2022-10-20T03:57:14.276Z,1021.27
2022-10-20T03:58:14.264Z,1021.26
2022-10-20T03:59:14.257Z,1021.28
2022-10-20T04:00:14.243Z,1021.24
2022-10-20T04:01:14.304Z,1021.24
2022-10-20T04:02:14.221Z,1021.20
2022-10-20T04:03:14.209Z,1021.15
2022-10-20T04:04:14.197Z,1021.17
2022-10-20T04:05:14.186Z,1021.13
2022-10-20T04:06:14.174Z,1021.14
2022-10-20T04:07:14.164Z,1021.17
2022-10-20T04:09:14.215Z,1021.14
2022-10-20T04:10:14.129Z,1021.11
2022-10-20T04:11:14.120Z,1021.05
2022-10-20T04:12:14.105Z,1021.10
2022-10-20T04:13:14.093Z,1021.08
2022-10-20T04:14:14.082Z,1021.08
2022-10-20T04:15:14.075Z,1021.06
2022-10-20T04:16:14.062Z,1021.05
2022-10-20T04:17:14.050Z,1021.04
2022-10-20T04:18:14.038Z,1021.07
2022-10-20T04:19:14.027Z,1021.01
2022-10-20T04:20:14.015Z,1021.01
2022-10-20T04:21:14.004Z,1021.01
2022-10-20T04:22:13.993Z,1021.00
2022-10-20T04:23:13.982Z,1021.01
2022-10-20T04:24:13.969Z,1021.06
2022-10-20T04:25:13.960Z,1021.03
2022-10-20T04:26:13.948Z,1021.05
2022-10-20T04:27:13.935Z,1021.04
2022-10-20T04:28:13.926Z,1021.06
2022-10-20T04:29:13.912Z,1021.06
2022-10-20T04:30:13.900Z,1021.03
2022-10-20T04:31:13.890Z,1020.99
2022-10-20T04:32:13.878Z,1020.97
2022-10-20T04:33:13.869Z,1020.89
2022-10-20T04:34:13.856Z,1020.87
2022-10-20T04:35:13.843Z,1020.90
2022-10-20T04:36:13.833Z,1020.93
2022-10-20T04:37:13.819Z,1020.92
2022-10-20T04:38:13.813Z,1020.91
2022-10-20T04:39:13.800Z,1020.93
2022-10-20T04:40:13.783Z,1020.91
2022-10-20T04:41:13.774Z,1020.90
2022-10-20T04:42:13.762Z,1020.87
2022-10-20T04:43:13.751Z,1020.86
2022-10-20T04:44:13.742Z,1020.83
2022-10-20T04:45:13.730Z,1020.84
2022-10-20T04:46:13.716Z,1020.85
2022-10-20T04:47:13.705Z,1020.84
2022-10-20T04:48:13.693Z,1020.85
2022-10-20T04:49:13.680Z,1020.82
2022-10-20T04:50:13.675Z,1020.83
2022-10-20T04:51:13.659Z,1020.81
2022-10-20T04:52:13.647Z,1020.77
2022-10-20T04:53:13.636Z,1020.78
2022-10-20T04:54:13.627Z,1020.81
2022-10-20T04:55:13.613Z,1020.75
2022-10-20T04:56:13.602Z,1020.76
2022-10-20T04:57:13.589Z,1020.77
2022-10-20T04:58:13.578Z,1020.78
2022-10-20T04:59:13.896Z,1020.77
2022-10-20T05:00:13.555Z,1020.78
2022-10-20T05:01:13.575Z,1020.76
2022-10-20T05:02:13.531Z,1020.77
2022-10-20T05:03:13.523Z,1020.76
2022-10-20T05:04:13.509Z,1020.76
2022-10-20T05:05:13.498Z,1020.71
2022-10-20T05:06:13.490Z,1020.70
2022-10-20T05:07:13.473Z,1020.65
2022-10-20T05:08:13.462Z,1020.66
2022-10-20T05:09:22.137Z,1020.62
2022-10-20T05:11:17.930Z,1020.68
2022-10-20T05:12:17.909Z,1020.66
2022-10-20T05:13:17.893Z,1020.58
2022-10-20T05:14:17.878Z,1020.61
2022-10-20T05:15:17.867Z,1020.60
2022-10-20T05:16:17.854Z,1020.57
2022-10-20T05:17:17.844Z,1020.58
2022-10-20T05:18:17.830Z,1020.53
2022-10-20T05:19:17.821Z,1020.51
2022-10-20T05:20:17.808Z,1020.49
2022-10-20T05:21:17.799Z,1020.48
2022-10-20T05:22:17.789Z,1020.50
2022-10-20T05:23:17.773Z,1020.53
2022-10-20T05:24:20.811Z,1020.50
2022-10-20T05:25:35.561Z,1020.51
2022-10-20T05:26:17.736Z,1020.49
2022-10-20T05:27:17.728Z,1020.48
2022-10-20T05:28:17.718Z,1020.54
2022-10-20T05:29:17.708Z,1020.51
2022-10-20T05:30:17.708Z,1020.54
2022-10-20T05:31:17.696Z,1020.51
2022-10-20T05:32:17.668Z,1020.48
2022-10-20T05:33:17.658Z,1020.48
2022-10-20T05:34:17.653Z,1020.50
2022-10-20T05:35:17.633Z,1020.53
2022-10-20T05:36:20.908Z,1020.51
2022-10-20T05:37:17.608Z,1020.57
2022-10-20T05:38:17.601Z,1020.62
2022-10-20T05:39:17.591Z,1020.55
2022-10-20T05:40:17.575Z,1020.58
2022-10-20T05:41:17.566Z,1020.58
2022-10-20T05:42:17.551Z,1020.62
2022-10-20T05:43:17.571Z,1020.60
2022-10-20T05:44:17.528Z,1020.63
2022-10-20T05:45:17.516Z,1020.64
2022-10-20T05:46:17.507Z,1020.58
2022-10-20T05:47:17.494Z,1020.62
2022-10-20T05:48:17.481Z,1020.62
2022-10-20T05:49:17.498Z,1020.63
2022-10-20T05:50:17.458Z,1020.66
2022-10-20T05:51:17.448Z,1020.67
2022-10-20T05:52:17.436Z,1020.66
2022-10-20T05:53:17.425Z,1020.67
2022-10-20T05:54:17.413Z,1020.72
2022-10-20T05:55:17.399Z,1020.66
2022-10-20T05:56:17.392Z,1020.65
2022-10-20T05:57:17.377Z,1020.64
2022-10-20T05:58:19.629Z,1020.66
2022-10-20T05:59:17.358Z,1020.63
2022-10-20T06:00:17.343Z,1020.68
2022-10-20T06:01:17.419Z,1020.65
2022-10-20T06:02:17.322Z,1020.63
2022-10-20T06:03:17.600Z,1020.56
2022-10-20T06:04:17.305Z,1020.65
2022-10-20T06:05:17.288Z,1020.59
2022-10-20T06:06:17.276Z,1020.60
2022-10-20T06:07:17.262Z,1020.66
2022-10-20T06:08:17.251Z,1020.60
2022-10-20T06:09:17.274Z,1020.65
2022-10-20T06:10:17.227Z,1020.63
2022-10-20T06:11:17.215Z,1020.67
2022-10-20T06:12:17.204Z,1020.62
2022-10-20T06:13:17.193Z,1020.70
2022-10-20T06:14:17.212Z,1020.69
2022-10-20T06:15:17.168Z,1020.68
2022-10-20T06:16:17.164Z,1020.64
2022-10-20T06:17:17.148Z,1020.68
2022-10-20T06:18:17.154Z,1020.66
2022-10-20T06:19:17.128Z,1020.67
2022-10-20T06:20:17.109Z,1020.65
2022-10-20T06:21:17.101Z,1020.67
2022-10-20T06:22:17.097Z,1020.65
2022-10-20T06:23:17.076Z,1020.66
2022-10-20T06:24:17.075Z,1020.66
2022-10-20T06:25:17.053Z,1020.69
2022-10-20T06:26:17.050Z,1020.68
2022-10-20T06:27:17.028Z,1020.69
2022-10-20T06:28:17.018Z,1020.72
2022-10-20T06:29:17.010Z,1020.73
2022-10-20T06:30:16.994Z,1020.71
2022-10-20T06:31:16.983Z,1020.68
2022-10-20T06:32:16.978Z,1020.68
2022-10-20T06:33:16.977Z,1020.68
2022-10-20T06:34:16.948Z,1020.70
2022-10-20T06:35:16.940Z,1020.67
2022-10-20T06:36:16.927Z,1020.65
2022-10-20T06:37:16.916Z,1020.67
2022-10-20T06:38:16.905Z,1020.67
2022-10-20T06:39:16.889Z,1020.69
2022-10-20T06:40:16.881Z,1020.68
2022-10-20T06:41:16.867Z,1020.68
2022-10-20T06:42:16.858Z,1020.66
2022-10-20T06:43:16.848Z,1020.66
2022-10-20T06:44:16.835Z,1020.71
2022-10-20T06:45:17.811Z,1020.65
2022-10-20T06:46:16.807Z,1020.62
2022-10-20T06:47:16.800Z,1020.63
2022-10-20T06:48:16.793Z,1020.64
2022-10-20T06:49:16.785Z,1020.62
2022-10-20T06:50:16.764Z,1020.57
2022-10-20T06:51:16.752Z,1020.55
2022-10-20T06:52:16.743Z,1020.56
2022-10-20T06:53:16.730Z,1020.53
2022-10-20T06:54:16.717Z,1020.56
2022-10-20T06:55:16.707Z,1020.55
2022-10-20T06:56:16.696Z,1020.58
2022-10-20T06:57:16.683Z,1020.50
2022-10-20T06:58:16.674Z,1020.54
2022-10-20T06:59:16.661Z,1020.48
2022-10-20T07:00:16.713Z,1020.50
2022-10-20T07:01:16.693Z,1020.51
2022-10-20T07:02:16.678Z,1020.51
2022-10-20T07:03:16.615Z,1020.46
2022-10-20T07:04:16.607Z,1020.49
2022-10-20T07:05:16.593Z,1020.47
2022-10-20T07:06:16.580Z,1020.52
2022-10-20T07:07:16.573Z,1020.47
2022-10-20T07:08:16.561Z,1020.49
2022-10-20T07:09:16.546Z,1020.54
2022-10-20T07:10:16.539Z,1020.54
2022-10-20T07:11:16.528Z,1020.56
2022-10-20T07:12:16.513Z,1020.49
2022-10-20T07:13:16.518Z,1020.52
2022-10-20T07:14:16.487Z,1020.54
2022-10-20T07:15:16.484Z,1020.51
2022-10-20T07:16:16.473Z,1020.50
2022-10-20T07:17:16.456Z,1020.49
2022-10-20T07:18:16.446Z,1020.48
2022-10-20T07:19:16.435Z,1020.49
2022-10-20T07:20:16.422Z,1020.47
2022-10-20T07:21:16.412Z,1020.44
2022-10-20T07:22:16.398Z,1020.50
2022-10-20T07:23:16.383Z,1020.48
2022-10-20T07:24:16.376Z,1020.48
2022-10-20T07:25:16.365Z,1020.46
2022-10-20T07:26:16.353Z,1020.49
2022-10-20T07:27:16.341Z,1020.43
2022-10-20T07:28:16.333Z,1020.39
2022-10-20T07:29:16.321Z,1020.41
2022-10-20T07:30:16.318Z,1020.42
2022-10-20T07:31:16.298Z,1020.38
2022-10-20T07:32:16.291Z,1020.39
2022-10-20T07:33:16.275Z,1020.40
2022-10-20T07:34:31.480Z,1020.42
2022-10-20T07:35:16.253Z,1020.39
2022-10-20T07:36:16.244Z,1020.39
2022-10-20T07:37:16.234Z,1020.41
2022-10-20T07:38:16.222Z,1020.40
2022-10-20T07:39:16.208Z,1020.34
2022-10-20T07:40:16.263Z,1020.30
2022-10-20T07:41:16.187Z,1020.34
2022-10-20T07:42:16.177Z,1020.32
2022-10-20T07:43:16.165Z,1020.34
2022-10-20T07:44:16.178Z,1020.31
2022-10-20T07:45:16.141Z,1020.34
2022-10-20T07:46:16.134Z,1020.34
2022-10-20T07:47:16.122Z,1020.39
2022-10-20T07:48:16.114Z,1020.36
2022-10-20T07:49:45.611Z,1020.32
2022-10-20T07:50:16.089Z,1020.37
2022-10-20T07:51:16.079Z,1020.33
2022-10-20T07:52:16.067Z,1020.33
2022-10-20T07:53:16.052Z,1020.29
2022-10-20T07:54:16.041Z,1020.23
2022-10-20T07:55:36.525Z,1020.29
2022-10-20T07:56:16.027Z,1020.28
2022-10-20T07:57:16.021Z,1020.25
2022-10-20T07:58:16.004Z,1020.21
2022-10-20T07:59:15.993Z,1020.19
2022-10-20T08:00:15.980Z,1020.23
2022-10-20T08:01:16.007Z,1020.25
2022-10-20T08:02:16.035Z,1020.23
2022-10-20T08:03:15.953Z,1020.28
2022-10-20T08:04:15.940Z,1020.27
2022-10-20T08:05:15.927Z,1020.26
2022-10-20T08:06:15.919Z,1020.27
2022-10-20T08:07:15.908Z,1020.23
2022-10-20T08:08:15.899Z,1020.24
2022-10-20T08:09:15.884Z,1020.24
2022-10-20T08:10:15.875Z,1020.25
2022-10-20T08:11:15.866Z,1020.22
2022-10-20T08:12:15.856Z,1020.21
2022-10-20T08:13:15.849Z,1020.19
2022-10-20T08:14:15.834Z,1020.18
2022-10-20T08:15:16.889Z,1020.14
2022-10-20T08:16:16.374Z,1020.10
2022-10-20T08:17:15.805Z,1020.08
2022-10-20T08:18:16.370Z,1020.08
2022-10-20T08:19:19.375Z,1020.08
2022-10-20T08:20:16.448Z,1020.09
2022-10-20T08:21:15.769Z,1020.07
2022-10-20T08:22:15.757Z,1020.14
2022-10-20T08:23:15.746Z,1020.13
2022-10-20T08:24:15.742Z,1020.06
2022-10-20T08:25:15.735Z,1020.05
2022-10-20T08:26:15.717Z,1020.02
2022-10-20T08:27:15.707Z,1019.98
2022-10-20T08:28:15.699Z,1020.01
2022-10-20T08:29:15.688Z,1019.99
2022-10-20T08:30:24.199Z,1020.01
2022-10-20T08:31:15.667Z,1020.00
2022-10-20T08:32:15.658Z,1019.97
2022-10-20T08:33:15.650Z,1019.97
2022-10-20T08:34:15.640Z,1019.94
2022-10-20T08:35:15.627Z,1019.92
2022-10-20T08:36:15.621Z,1019.91
2022-10-20T08:37:15.667Z,1019.92
2022-10-20T08:38:15.599Z,1019.96
2022-10-20T08:39:15.592Z,1019.94
2022-10-20T08:40:15.582Z,1019.92
2022-10-20T08:41:15.574Z,1019.91
2022-10-20T08:42:15.562Z,1019.88
2022-10-20T08:43:15.555Z,1019.93
2022-10-20T08:44:15.541Z,1019.94
2022-10-20T08:45:15.533Z,1019.86
2022-10-20T08:46:15.566Z,1019.92
2022-10-20T08:47:15.517Z,1019.90
2022-10-20T08:48:15.507Z,1019.96
2022-10-20T08:49:15.500Z,1019.93
2022-10-20T08:50:15.489Z,1019.89
2022-10-20T08:51:15.481Z,1019.90
2022-10-20T08:52:15.469Z,1019.88
2022-10-20T08:53:15.465Z,1019.86
2022-10-20T08:54:15.459Z,1019.83
2022-10-20T08:55:15.502Z,1019.83
2022-10-20T08:56:15.434Z,1019.83
2022-10-20T08:57:15.423Z,1019.78
2022-10-20T08:58:15.417Z,1019.82
2022-10-20T08:59:15.410Z,1019.79
2022-10-20T09:00:15.404Z,1019.79
2022-10-20T09:01:15.431Z,1019.77
2022-10-20T09:02:15.468Z,1019.77
2022-10-20T09:03:15.374Z,1019.74
2022-10-20T09:04:15.364Z,1019.72
2022-10-20T09:05:18.332Z,1019.75
2022-10-20T09:06:15.347Z,1019.71
2022-10-20T09:07:15.338Z,1019.73
2022-10-20T09:08:15.335Z,1019.73
2022-10-20T09:09:15.320Z,1019.72
2022-10-20T09:10:15.310Z,1019.73
2022-10-20T09:11:15.302Z,1019.68
2022-10-20T09:12:15.338Z,1019.68
2022-10-20T09:13:15.326Z,1019.70
2022-10-20T09:14:15.272Z,1019.64
2022-10-20T09:15:15.278Z,1019.67
2022-10-20T09:16:23.227Z,1019.62
2022-10-20T09:17:15.247Z,1019.64
2022-10-20T09:18:15.240Z,1019.63
2022-10-20T09:19:15.231Z,1019.63
2022-10-20T09:20:15.223Z,1019.60
2022-10-20T09:21:15.216Z,1019.67
2022-10-20T09:22:15.207Z,1019.69
2022-10-20T09:23:35.495Z,1019.69
2022-10-20T09:24:15.187Z,1019.65
2022-10-20T09:25:15.184Z,1019.63
2022-10-20T09:26:25.004Z,1019.54
2022-10-20T09:27:15.164Z,1019.54
2022-10-20T09:28:15.153Z,1019.51
2022-10-20T09:29:15.373Z,1019.51
2022-10-20T09:30:15.135Z,1019.46
2022-10-20T09:31:15.130Z,1019.48
2022-10-20T09:32:41.149Z,1019.44
2022-10-20T09:33:15.114Z,1019.44
2022-10-20T09:34:15.103Z,1019.40
2022-10-20T09:35:15.098Z,1019.41
2022-10-20T09:36:15.086Z,1019.44
2022-10-20T09:37:15.078Z,1019.36
2022-10-20T09:38:15.073Z,1019.40
2022-10-20T09:39:15.059Z,1019.39
2022-10-20T09:40:15.081Z,1019.40
2022-10-20T09:41:15.044Z,1019.40
2022-10-20T09:42:15.034Z,1019.40
2022-10-20T09:43:15.028Z,1019.42
2022-10-20T09:44:15.018Z,1019.39
2022-10-20T09:45:15.014Z,1019.38
2022-10-20T09:46:15.004Z,1019.33
2022-10-20T09:47:14.996Z,1019.31
2022-10-20T09:48:14.986Z,1019.28
2022-10-20T09:49:14.981Z,1019.31
2022-10-20T09:50:14.969Z,1019.26
2022-10-20T09:51:14.963Z,1019.22
2022-10-20T09:52:14.955Z,1019.22
2022-10-20T09:53:14.946Z,1019.20
2022-10-20T09:54:14.933Z,1019.24
2022-10-20T09:55:14.930Z,1019.09
2022-10-20T09:56:14.921Z,1019.12
2022-10-20T09:57:14.911Z,1019.09
2022-10-20T09:58:17.136Z,1019.07
2022-10-20T09:59:14.896Z,1018.99
2022-10-20T10:00:35.868Z,1019.06
2022-10-20T10:01:14.925Z,1019.00
2022-10-20T10:02:14.869Z,1018.99
2022-10-20T10:03:14.864Z,1018.96
2022-10-20T10:04:14.856Z,1018.95
2022-10-20T10:05:14.853Z,1018.95
2022-10-20T10:06:14.845Z,1018.93
2022-10-20T10:07:14.829Z,1018.95
2022-10-20T10:08:14.823Z,1018.88
2022-10-20T10:09:14.879Z,1018.99
2022-10-20T10:10:14.809Z,1018.94
2022-10-20T10:11:14.816Z,1018.87
2022-10-20T10:12:14.790Z,1018.87
2022-10-20T10:13:14.788Z,1018.89
2022-10-20T10:14:14.774Z,1018.89
2022-10-20T10:15:14.766Z,1018.83
2022-10-20T10:16:14.759Z,1018.81
2022-10-20T10:17:14.753Z,1018.78
2022-10-20T10:18:14.743Z,1018.77
2022-10-20T10:20:14.734Z,1018.76
2022-10-20T10:21:14.723Z,1018.69
2022-10-20T10:22:14.718Z,1018.69
2022-10-20T10:23:14.708Z,1018.64
2022-10-20T10:24:14.695Z,1018.70
2022-10-20T10:25:14.693Z,1018.68
2022-10-20T10:26:14.680Z,1018.69
2022-10-20T10:27:14.675Z,1018.66
2022-10-20T10:28:14.676Z,1018.68
2022-10-20T10:29:14.662Z,1018.67
2022-10-20T10:30:14.783Z,1018.62
2022-10-20T10:31:14.645Z,1018.50
2022-10-20T10:32:14.637Z,1018.50
2022-10-20T10:33:14.625Z,1018.47
2022-10-20T10:34:14.622Z,1018.45
2022-10-20T10:35:14.612Z,1018.41
2022-10-20T10:36:14.606Z,1018.38
2022-10-20T10:37:14.656Z,1018.41
2022-10-20T10:38:14.596Z,1018.37
2022-10-20T10:39:14.637Z,1018.41
2022-10-20T10:40:14.638Z,1018.40
2022-10-20T10:41:14.575Z,1018.42
2022-10-20T10:42:14.566Z,1018.35
2022-10-20T10:43:14.553Z,1018.41
2022-10-20T10:44:14.553Z,1018.37
2022-10-20T10:45:14.548Z,1018.36
2022-10-20T10:46:14.542Z,1018.34
2022-10-20T10:47:14.520Z,1018.38
2022-10-20T10:48:14.515Z,1018.28
2022-10-20T10:49:14.512Z,1018.35
2022-10-20T10:50:14.560Z,1018.30
2022-10-20T10:51:14.489Z,1018.27
2022-10-20T10:52:14.495Z,1018.28
2022-10-20T10:53:14.489Z,1018.20
2022-10-20T10:54:14.476Z,1018.10
2022-10-20T10:55:30.451Z,1018.13
2022-10-20T10:56:14.456Z,1018.04
2022-10-20T10:57:14.479Z,1018.05
2022-10-20T10:59:14.429Z,1018.08
2022-10-20T11:00:14.543Z,1018.02
2022-10-20T11:01:14.457Z,1018.02
2022-10-20T11:02:14.454Z,1018.03
2022-10-20T11:03:14.397Z,1017.98
2022-10-20T11:04:14.403Z,1017.90
2022-10-20T11:06:14.385Z,1017.91
2022-10-20T11:07:14.375Z,1017.90
2022-10-20T11:08:14.367Z,1017.84
2022-10-20T11:09:21.522Z,1017.89
2022-10-20T11:11:18.362Z,1017.90
2022-10-20T11:12:18.338Z,1017.86
2022-10-20T11:14:22.333Z,1017.81
2022-10-20T11:15:22.312Z,1017.82
2022-10-20T11:17:15.419Z,1017.74
2022-10-20T11:18:15.403Z,1017.66
2022-10-20T11:20:19.395Z,1017.71
2022-10-20T11:21:19.373Z,1017.67
2022-10-20T11:23:23.444Z,1017.65
2022-10-20T11:24:23.360Z,1017.65
2022-10-20T11:26:16.272Z,1017.56
2022-10-20T11:27:16.250Z,1017.57
2022-10-20T11:29:09.357Z,1017.49
2022-10-20T11:30:09.341Z,1017.47
2022-10-20T11:32:13.317Z,1017.37
2022-10-20T11:33:13.301Z,1017.42
2022-10-20T11:35:17.312Z,1017.42
2022-10-20T11:36:17.297Z,1017.39
2022-10-20T11:38:21.277Z,1017.40
2022-10-20T11:39:21.269Z,1017.33
2022-10-20T11:41:25.296Z,1017.33
2022-10-20T11:42:25.278Z,1017.39
2022-10-20T11:44:18.390Z,1017.26
2022-10-20T11:45:18.369Z,1017.30
2022-10-20T11:47:22.345Z,1017.28
2022-10-20T11:48:22.337Z,1017.32
2022-10-20T11:50:15.260Z,1017.22
2022-10-20T11:51:15.234Z,1017.28
2022-10-20T11:53:19.241Z,1017.22
2022-10-20T11:54:19.235Z,1017.18
2022-10-20T11:55:19.231Z,1017.19
2022-10-20T11:56:19.220Z,1017.16
2022-10-20T11:57:19.213Z,1017.21
2022-10-20T11:58:19.208Z,1017.15
2022-10-20T11:59:19.199Z,1017.14
2022-10-20T12:01:19.188Z,1017.10
2022-10-20T12:02:19.289Z,1017.14
2022-10-20T12:03:19.175Z,1017.14
2022-10-20T12:04:19.164Z,1017.06
2022-10-20T12:05:19.166Z,1017.03
2022-10-20T12:06:19.152Z,1016.98
2022-10-20T12:07:19.146Z,1016.95
2022-10-20T12:08:29.622Z,1016.94
2022-10-20T12:09:19.209Z,1016.90
2022-10-20T12:10:19.126Z,1016.96
2022-10-20T12:11:19.123Z,1016.92
2022-10-20T12:12:19.118Z,1016.90
2022-10-20T12:13:19.106Z,1016.89
2022-10-20T12:14:19.102Z,1016.93
2022-10-20T12:15:19.832Z,1016.98
2022-10-20T12:16:19.086Z,1017.00
2022-10-20T12:17:19.080Z,1017.04
2022-10-20T12:18:19.073Z,1017.02
2022-10-20T12:19:19.067Z,1017.02
2022-10-20T12:20:19.059Z,1016.95
2022-10-20T12:21:19.052Z,1016.94
2022-10-20T12:22:19.048Z,1016.91
2022-10-20T12:23:19.043Z,1016.94
2022-10-20T12:24:19.031Z,1016.93
2022-10-20T12:25:19.023Z,1016.93
2022-10-20T12:26:19.021Z,1016.95
2022-10-20T12:27:19.017Z,1016.97
2022-10-20T12:28:19.007Z,1016.92
2022-10-20T12:29:19.011Z,1016.91
2022-10-20T12:30:18.995Z,1016.84
2022-10-20T12:31:18.990Z,1016.82
2022-10-20T12:32:18.981Z,1016.77
2022-10-20T12:33:18.977Z,1016.76